createdAt,value
2023-04-28T00:00:09.850Z,26.08
2023-04-28T00:02:37.764Z,26.23
2023-04-28T00:05:06.443Z,24.17
2023-04-28T00:07:34.890Z,30.73
2023-04-28T00:10:02.580Z,24.20
2023-04-28T00:12:30.401Z,24.48
2023-04-28T00:14:58.147Z,28.15
2023-04-28T00:17:26.038Z,30.52
2023-04-28T00:19:53.770Z,25.92
2023-04-28T00:22:21.979Z,30.25
2023-04-28T00:24:49.695Z,29.52
2023-04-28T00:27:17.460Z,30.27
2023-04-28T00:29:45.258Z,27.25
2023-04-28T00:32:13.712Z,30.23
2023-04-28T00:34:41.596Z,28.20
2023-04-28T00:37:09.387Z,29.77
2023-04-28T00:39:37.453Z,28.52
2023-04-28T00:42:05.231Z,23.85
2023-04-28T00:44:33.326Z,27.85
2023-04-28T00:47:01.641Z,25.23
2023-04-28T00:49:30.443Z,31.48
2023-04-28T00:52:03.689Z,28.60
2023-04-28T00:54:32.276Z,27.88
2023-04-28T00:56:59.994Z,26.60
2023-04-28T00:59:27.751Z,35.45
2023-04-28T01:01:56.329Z,26.65
2023-04-28T01:04:24.384Z,28.17
2023-04-28T01:06:53.975Z,30.02
2023-04-28T01:09:22.193Z,30.25
2023-04-28T01:11:52.219Z,29.40
2023-04-28T01:14:40.366Z,36.42
2023-04-28T01:17:09.049Z,30.38
2023-04-28T01:19:36.891Z,31.27
2023-04-28T01:22:05.026Z,35.63
2023-04-28T01:24:32.978Z,34.35
2023-04-28T01:27:05.214Z,37.22
2023-04-28T01:29:32.928Z,34.58
2023-04-28T01:32:00.737Z,38.05
2023-04-28T01:34:28.566Z,34.72
2023-04-28T01:36:56.479Z,35.30
2023-04-28T01:39:24.229Z,31.77
2023-04-28T01:41:51.984Z,33.38
2023-04-28T01:44:19.781Z,35.25
2023-04-28T01:46:49.584Z,33.95
2023-04-28T01:49:17.891Z,34.72
2023-04-28T01:51:45.799Z,35.28
2023-04-28T01:54:13.747Z,32.13
2023-04-28T01:56:42.145Z,34.33
2023-04-28T01:59:11.899Z,33.92
2023-04-28T02:01:39.619Z,35.47
2023-04-28T02:04:07.490Z,40.53
2023-04-28T02:06:37.535Z,37.33
2023-04-28T02:09:05.354Z,31.17
2023-04-28T02:11:34.608Z,37.38
2023-04-28T02:14:02.329Z,36.72
2023-04-28T02:16:30.083Z,38.08
2023-04-28T02:18:57.880Z,38.45
2023-04-28T02:21:28.618Z,33.92
2023-04-28T02:23:56.556Z,41.97
2023-04-28T02:26:24.758Z,36.90
2023-04-28T02:28:53.101Z,34.30
2023-04-28T02:31:20.972Z,34.15
2023-04-28T02:33:48.866Z,37.72
2023-04-28T02:36:16.666Z,38.58
2023-04-28T02:38:44.978Z,38.67
2023-04-28T02:41:13.215Z,34.72
2023-04-28T02:43:41.227Z,40.85
2023-04-28T02:46:08.978Z,36.95
2023-04-28T02:48:37.506Z,35.03
2023-04-28T02:51:05.636Z,38.72
2023-04-28T02:53:34.630Z,37.80
2023-04-28T02:56:04.515Z,39.35
2023-04-28T02:58:33.506Z,39.97
2023-04-28T03:01:02.867Z,38.85
2023-04-28T03:03:30.795Z,43.72
2023-04-28T03:05:58.542Z,39.00
2023-04-28T03:08:26.863Z,42.50
2023-04-28T03:10:55.076Z,42.78
2023-04-28T03:13:23.547Z,42.00
2023-04-28T03:15:52.519Z,49.92
2023-04-28T03:18:20.348Z,41.45
2023-04-28T03:20:48.607Z,42.97
2023-04-28T03:23:16.601Z,46.47
2023-04-28T03:25:44.255Z,44.60
2023-04-28T03:28:12.705Z,39.67
2023-04-28T03:30:40.997Z,45.15
2023-04-28T03:33:08.802Z,45.10
2023-04-28T03:35:36.485Z,45.75
2023-04-28T03:38:04.167Z,46.67
2023-04-28T03:40:31.988Z,49.58
2023-04-28T03:43:28.377Z,43.58
2023-04-28T03:46:29.343Z,42.60
2023-04-28T03:49:02.282Z,45.63
2023-04-28T03:51:32.757Z,44.95
2023-04-28T03:54:00.870Z,47.10
2023-04-28T03:56:28.598Z,48.10
2023-04-28T03:58:56.709Z,45.28
2023-04-28T04:01:25.902Z,43.70
2023-04-28T04:03:54.253Z,48.10
2023-04-28T04:06:23.050Z,48.90
2023-04-28T04:08:50.929Z,49.55
2023-04-28T04:11:18.640Z,48.47
2023-04-28T04:13:46.581Z,50.78
2023-04-28T04:16:16.598Z,48.00
2023-04-28T04:18:44.407Z,51.83
2023-04-28T04:21:21.122Z,50.88
2023-04-28T04:23:51.330Z,52.90
2023-04-28T04:26:19.372Z,56.95
2023-04-28T04:28:49.305Z,59.15
2023-04-28T04:31:19.544Z,53.47
2023-04-28T04:33:48.445Z,52.85
2023-04-28T04:36:17.253Z,64.30
2023-04-28T04:38:44.983Z,54.45
2023-04-28T04:41:23.252Z,54.70
2023-04-28T04:43:58.802Z,52.33
2023-04-28T04:46:32.769Z,64.53
2023-04-28T04:49:00.610Z,60.90
2023-04-28T04:51:28.250Z,56.95
2023-04-28T04:53:56.041Z,56.15
2023-04-28T04:56:23.740Z,59.08
2023-04-28T04:58:52.379Z,59.75
2023-04-28T05:01:49.437Z,54.15
2023-04-28T05:04:17.544Z,57.58
2023-04-28T05:06:45.868Z,57.58
2023-04-28T05:09:13.693Z,54.15
2023-04-28T05:11:41.635Z,53.30
2023-04-28T05:14:09.379Z,53.67
2023-04-28T05:16:37.517Z,55.13
2023-04-28T05:19:12.043Z,56.57
2023-04-28T05:21:39.815Z,53.10
2023-04-28T05:24:07.728Z,59.42
2023-04-28T05:26:36.869Z,58.30
2023-04-28T05:29:09.107Z,56.28
2023-04-28T05:31:36.872Z,53.08
2023-04-28T05:34:04.654Z,53.75
2023-04-28T05:36:32.504Z,47.13
2023-04-28T05:39:00.631Z,51.38
2023-04-28T05:41:28.905Z,51.75
2023-04-28T05:43:56.711Z,54.00
2023-04-28T05:46:30.725Z,55.17
2023-04-28T05:51:33.775Z,51.22
2023-04-28T05:54:03.441Z,49.60
2023-04-28T05:56:33.941Z,47.55
2023-04-28T05:59:04.694Z,47.45
2023-04-28T06:01:32.899Z,39.42
2023-04-28T06:04:01.262Z,47.58
2023-04-28T06:06:29.340Z,47.80
2023-04-28T06:08:57.240Z,34.72
2023-04-28T06:11:26.880Z,25.25
2023-04-28T06:13:54.760Z,19.63
2023-04-28T06:16:23.655Z,16.45
2023-04-28T06:18:51.869Z,12.75
2023-04-28T06:21:21.426Z,11.60
2023-04-28T06:23:49.310Z,13.80
2023-04-28T06:26:18.324Z,10.40
2023-04-28T06:28:46.533Z,10.95
2023-04-28T06:31:14.350Z,10.27
2023-04-28T06:33:42.053Z,12.75
2023-04-28T06:36:13.821Z,11.60
2023-04-28T06:38:43.249Z,10.65
2023-04-28T06:41:11.606Z,11.10
2023-04-28T06:43:41.086Z,8.63
2023-04-28T06:46:30.524Z,8.65
2023-04-28T06:48:58.746Z,8.68
2023-04-28T06:51:28.833Z,7.10
2023-04-28T06:53:56.788Z,7.57
2023-04-28T06:56:24.952Z,8.15
2023-04-28T06:58:57.033Z,8.25
2023-04-28T07:01:25.255Z,7.35
2023-04-28T07:03:52.993Z,5.40
2023-04-28T07:06:21.178Z,5.63
2023-04-28T07:08:48.941Z,4.60
2023-04-28T07:11:16.714Z,6.53
2023-04-28T07:13:46.543Z,4.75
2023-04-28T07:16:14.291Z,5.13
2023-04-28T07:18:41.967Z,4.95
2023-04-28T07:21:11.089Z,3.28
2023-04-28T07:23:40.351Z,3.38
2023-04-28T07:26:08.305Z,3.10
2023-04-28T07:28:36.310Z,3.20
2023-04-28T07:31:03.982Z,5.55
2023-04-28T07:33:32.844Z,4.32
2023-04-28T07:36:00.789Z,3.88
2023-04-28T07:38:28.442Z,2.45
2023-04-28T07:40:56.085Z,4.05
2023-04-28T07:43:23.771Z,3.08
2023-04-28T07:45:51.574Z,2.03
2023-04-28T07:48:19.415Z,2.97
2023-04-28T07:50:47.485Z,4.40
2023-04-28T07:53:15.191Z,1.65
2023-04-28T07:55:44.688Z,1.63
2023-04-28T07:58:13.055Z,2.50
2023-04-28T08:00:41.295Z,3.13
2023-04-28T08:03:09.113Z,1.90
2023-04-28T08:05:38.945Z,2.63
2023-04-28T08:08:06.806Z,2.85
2023-04-28T08:10:34.637Z,2.78
2023-04-28T08:13:03.310Z,2.13
2023-04-28T08:15:31.515Z,2.60
2023-04-28T08:17:59.342Z,3.53
2023-04-28T08:20:26.964Z,2.53
2023-04-28T08:22:54.761Z,2.22
2023-04-28T08:25:22.826Z,2.88
2023-04-28T08:27:50.493Z,3.20
2023-04-28T08:30:18.540Z,2.05
2023-04-28T08:32:46.260Z,3.10
2023-04-28T08:35:15.354Z,4.93
2023-04-28T08:37:43.349Z,3.67
2023-04-28T08:40:11.417Z,3.47
2023-04-28T08:42:39.656Z,8.93
2023-04-28T08:45:08.788Z,2.45
2023-04-28T08:47:40.583Z,7.55
2023-04-28T08:50:09.198Z,2.35
2023-04-28T08:52:37.047Z,4.43
2023-04-28T08:55:10.627Z,4.22
2023-04-28T08:57:43.493Z,5.45
2023-04-28T09:00:12.592Z,3.90
2023-04-28T09:02:42.830Z,3.72
2023-04-28T09:05:13.002Z,3.40
2023-04-28T09:07:41.571Z,3.78
2023-04-28T09:10:24.766Z,5.65
2023-04-28T09:12:55.209Z,3.95
2023-04-28T09:15:37.638Z,3.80
2023-04-28T09:18:08.072Z,3.45
2023-04-28T09:20:37.176Z,3.50
2023-04-28T09:23:22.447Z,5.25
2023-04-28T09:26:07.818Z,4.17
2023-04-28T09:28:36.489Z,3.38
2023-04-28T09:31:04.547Z,4.85
2023-04-28T09:33:32.420Z,3.58
2023-04-28T09:36:00.185Z,4.10
2023-04-28T09:38:27.852Z,3.33
2023-04-28T09:41:03.946Z,4.28
2023-04-28T09:43:34.202Z,6.47
2023-04-28T09:46:06.116Z,3.65
2023-04-28T09:48:36.712Z,2.95
2023-04-28T09:51:07.818Z,2.80
2023-04-28T09:53:35.836Z,1.90
2023-04-28T09:56:05.380Z,3.42
2023-04-28T09:58:35.394Z,5.68
2023-04-28T10:01:03.635Z,1.58
2023-04-28T10:03:31.887Z,3.35
2023-04-28T10:06:00.150Z,3.42
2023-04-28T10:08:28.147Z,2.25
2023-04-28T10:10:56.853Z,1.48
2023-04-28T10:13:25.366Z,1.60
2023-04-28T10:15:58.405Z,1.80
2023-04-28T10:18:27.089Z,1.73
2023-04-28T10:21:00.347Z,2.05
2023-04-28T10:24:07.174Z,2.67
2023-04-28T10:27:08.805Z,3.35
2023-04-28T10:29:37.641Z,3.95
2023-04-28T10:32:24.726Z,7.10
2023-04-28T10:34:53.320Z,3.75
2023-04-28T10:37:58.785Z,4.82
2023-04-28T10:40:35.871Z,4.88
2023-04-28T10:43:04.695Z,4.25
2023-04-28T10:45:56.812Z,5.32
2023-04-28T10:48:34.484Z,4.35
2023-04-28T10:51:06.029Z,4.03
2023-04-28T10:53:50.291Z,4.10
2023-04-28T10:56:21.747Z,4.25
2023-04-28T10:58:54.274Z,6.05
2023-04-28T11:01:22.225Z,3.45
2023-04-28T11:04:03.195Z,4.88
2023-04-28T11:06:36.522Z,4.93
2023-04-28T11:09:15.979Z,4.47
2023-04-28T11:12:06.104Z,2.67
2023-04-28T11:14:40.498Z,2.63
2023-04-28T11:17:13.423Z,2.50
2023-04-28T11:19:45.377Z,3.55
2023-04-28T11:22:20.372Z,2.50
2023-04-28T11:24:58.972Z,2.40
2023-04-28T11:27:29.068Z,3.50
2023-04-28T11:29:56.972Z,2.38
2023-04-28T11:32:33.839Z,3.00
2023-04-28T11:35:01.937Z,2.65
2023-04-28T11:37:29.625Z,2.05
2023-04-28T11:39:57.489Z,2.53
2023-04-28T11:42:27.720Z,3.80
2023-04-28T11:44:55.724Z,1.63
2023-04-28T11:47:49.756Z,2.28
2023-04-28T11:50:17.700Z,3.10
2023-04-28T11:52:53.871Z,2.80
2023-04-28T11:55:21.799Z,2.65
2023-04-28T11:57:49.500Z,2.13
2023-04-28T12:00:22.212Z,2.33
2023-04-28T12:02:51.001Z,2.65
2023-04-28T12:05:20.843Z,3.22
2023-04-28T12:07:48.683Z,2.20
2023-04-28T12:10:17.709Z,2.03
2023-04-28T12:12:51.786Z,1.75
2023-04-28T12:15:22.688Z,1.85
2023-04-28T12:17:51.339Z,2.72
2023-04-28T12:20:39.477Z,5.75
2023-04-28T12:23:08.433Z,2.97
2023-04-28T12:25:46.533Z,3.65
2023-04-28T12:28:14.284Z,3.40
2023-04-28T12:30:42.776Z,2.90
2023-04-28T12:33:29.695Z,3.38
2023-04-28T12:35:58.443Z,3.70
2023-04-28T12:38:27.460Z,2.70
2023-04-28T12:40:55.588Z,3.90
2023-04-28T12:43:24.259Z,4.70
2023-04-28T12:45:53.849Z,5.65
2023-04-28T12:48:25.174Z,3.63
2023-04-28T12:50:53.091Z,3.08
2023-04-28T12:53:20.788Z,5.10
2023-04-28T12:55:48.481Z,7.05
2023-04-28T12:58:16.234Z,8.32
2023-04-28T13:00:44.420Z,6.25
2023-04-28T13:03:12.260Z,6.65
2023-04-28T13:05:39.977Z,7.00
2023-04-28T13:08:07.693Z,6.38
2023-04-28T13:10:35.393Z,7.47
2023-04-28T13:13:03.148Z,10.10
2023-04-28T13:15:31.574Z,8.82
2023-04-28T13:17:59.985Z,8.65
2023-04-28T13:20:27.701Z,9.60
2023-04-28T13:22:55.462Z,4.40
2023-04-28T13:25:23.197Z,6.68
2023-04-28T13:27:51.674Z,5.95
2023-04-28T13:30:19.349Z,4.10
2023-04-28T13:32:47.172Z,5.68
2023-04-28T13:35:15.010Z,4.22
2023-04-28T13:37:45.955Z,5.85
2023-04-28T13:40:13.894Z,6.05
2023-04-28T13:42:41.706Z,4.47
2023-04-28T13:45:10.034Z,4.20
2023-04-28T13:47:38.223Z,3.30
2023-04-28T13:50:06.696Z,5.57
2023-04-28T13:52:34.630Z,3.25
2023-04-28T13:55:02.421Z,1.88
2023-04-28T13:57:30.457Z,2.58
2023-04-28T13:59:58.136Z,2.45
2023-04-28T14:02:27.466Z,2.55
2023-04-28T14:04:55.386Z,1.45
2023-04-28T14:07:23.121Z,1.40
2023-04-28T14:09:50.902Z,2.47
2023-04-28T14:12:18.545Z,3.40
2023-04-28T14:14:49.456Z,3.67
2023-04-28T14:17:17.393Z,2.28
2023-04-28T14:19:45.952Z,3.17
2023-04-28T14:22:13.612Z,1.90
2023-04-28T14:24:43.283Z,2.67
2023-04-28T14:27:11.177Z,3.67
2023-04-28T14:29:39.130Z,3.42
2023-04-28T14:32:07.322Z,1.92
2023-04-28T14:34:34.957Z,1.35
2023-04-28T14:37:02.659Z,3.47
2023-04-28T14:39:30.520Z,2.83
2023-04-28T14:41:58.119Z,1.88
2023-04-28T14:44:26.116Z,2.53
2023-04-28T14:46:53.898Z,1.42
2023-04-28T14:49:21.835Z,1.67
2023-04-28T14:51:50.142Z,4.97
2023-04-28T14:54:17.854Z,3.20
2023-04-28T14:56:45.567Z,2.38
2023-04-28T14:59:13.227Z,1.92
2023-04-28T15:01:41.583Z,1.92
2023-04-28T15:04:12.934Z,1.73
2023-04-28T15:06:41.277Z,1.60
2023-04-28T15:09:08.940Z,2.42
2023-04-28T15:11:36.833Z,1.30
2023-04-28T15:14:04.553Z,1.63
2023-04-28T15:16:32.312Z,2.15
2023-04-28T15:19:00.290Z,2.47
2023-04-28T15:21:28.613Z,2.75
2023-04-28T15:23:56.424Z,1.67
2023-04-28T15:26:24.043Z,1.77
2023-04-28T15:28:51.920Z,2.28
2023-04-28T15:31:19.940Z,2.78
2023-04-28T15:33:48.143Z,4.82
2023-04-28T15:36:18.210Z,3.60
2023-04-28T15:38:48.080Z,4.68
2023-04-28T15:41:16.019Z,7.30
2023-04-28T15:43:45.141Z,4.18
2023-04-28T15:46:17.029Z,5.28
2023-04-28T15:48:44.939Z,5.03
2023-04-28T15:51:12.653Z,6.22
2023-04-28T15:53:40.383Z,8.15
2023-04-28T15:56:08.756Z,6.30
2023-04-28T15:58:36.498Z,6.57
2023-04-28T16:01:05.298Z,4.80
2023-04-28T16:03:33.289Z,7.13
2023-04-28T16:06:01.248Z,5.97
2023-04-28T16:08:29.369Z,9.23
2023-04-28T16:10:57.282Z,6.78
2023-04-28T16:13:24.940Z,7.63
2023-04-28T16:15:53.232Z,9.02
2023-04-28T16:18:21.185Z,8.63
2023-04-28T16:20:49.171Z,10.77
2023-04-28T16:23:16.870Z,12.38
2023-04-28T16:25:44.561Z,10.88
2023-04-28T16:28:12.237Z,12.95
2023-04-28T16:30:39.921Z,10.95
2023-04-28T16:33:08.665Z,7.90
2023-04-28T16:35:36.854Z,7.45
2023-04-28T16:38:04.543Z,8.98
2023-04-28T16:40:32.226Z,7.13
2023-04-28T16:42:59.936Z,8.18
2023-04-28T16:45:27.642Z,13.95
2023-04-28T16:47:55.592Z,11.75
2023-04-28T16:50:23.205Z,9.15
2023-04-28T16:52:50.865Z,10.60
2023-04-28T16:55:18.947Z,13.38
2023-04-28T16:57:46.886Z,13.32
2023-04-28T17:00:15.308Z,11.23
2023-04-28T17:02:43.156Z,10.82
2023-04-28T17:05:11.125Z,12.90
2023-04-28T17:07:38.796Z,17.10
2023-04-28T17:10:07.270Z,13.48
2023-04-28T17:12:34.982Z,14.35
2023-04-28T17:15:03.194Z,11.57
2023-04-28T17:17:30.987Z,12.43
2023-04-28T17:20:00.558Z,12.93
2023-04-28T17:22:30.709Z,13.95
2023-04-28T17:24:58.405Z,14.10
2023-04-28T17:27:26.076Z,11.95
2023-04-28T17:29:53.941Z,15.75
2023-04-28T17:32:21.690Z,16.13
2023-04-28T17:34:49.385Z,14.80
2023-04-28T17:37:17.107Z,13.93
2023-04-28T17:39:44.762Z,15.63
2023-04-28T17:42:12.417Z,15.30
2023-04-28T17:44:40.148Z,17.33
2023-04-28T17:47:07.813Z,13.38
2023-04-28T17:49:35.832Z,16.38
2023-04-28T17:52:04.196Z,18.88
2023-04-28T17:54:32.238Z,18.50
2023-04-28T17:57:02.354Z,21.25
2023-04-28T17:59:30.048Z,20.90
2023-04-28T18:01:58.497Z,19.25
2023-04-28T18:04:26.362Z,21.00
2023-04-28T18:06:54.111Z,24.58
2023-04-28T18:09:21.983Z,26.50
2023-04-28T18:11:52.079Z,27.85
2023-04-28T18:14:21.435Z,32.45
2023-04-28T18:16:51.328Z,27.95
2023-04-28T18:19:22.624Z,26.42
2023-04-28T18:21:59.621Z,27.55
2023-04-28T18:24:27.777Z,28.40
2023-04-28T18:26:56.351Z,28.70
2023-04-28T18:29:24.165Z,29.98
2023-04-28T18:31:52.109Z,26.77
2023-04-28T18:34:19.949Z,28.75
2023-04-28T18:36:47.739Z,24.65
2023-04-28T18:39:15.434Z,24.13
2023-04-28T18:41:43.159Z,30.92
2023-04-28T18:44:10.912Z,26.83
2023-04-28T18:46:39.782Z,28.52
2023-04-28T18:49:07.508Z,28.35
2023-04-28T18:51:35.753Z,26.10
2023-04-28T18:54:04.680Z,27.02
2023-04-28T18:56:32.398Z,23.63
2023-04-28T18:59:00.019Z,25.92
2023-04-28T19:01:27.842Z,27.20
2023-04-28T19:03:56.056Z,28.27
2023-04-28T19:06:23.859Z,25.17
2023-04-28T19:08:51.527Z,27.35
2023-04-28T19:11:19.196Z,27.92
2023-04-28T19:13:47.162Z,31.15
2023-04-28T19:16:14.952Z,28.75
2023-04-28T19:18:42.935Z,33.03
2023-04-28T19:21:13.963Z,31.30
2023-04-28T19:23:41.963Z,33.05
2023-04-28T19:26:10.443Z,28.30
2023-04-28T19:28:38.193Z,36.38
2023-04-28T19:31:06.234Z,34.92
2023-04-28T19:33:33.980Z,30.98
2023-04-28T19:36:01.642Z,33.38
2023-04-28T19:38:29.312Z,32.60
2023-04-28T19:41:03.659Z,31.83
2023-04-28T19:43:31.687Z,39.30
2023-04-28T19:45:59.469Z,37.17
2023-04-28T19:48:27.219Z,30.42
2023-04-28T19:50:55.057Z,33.92
2023-04-28T19:53:22.769Z,32.28
2023-04-28T19:55:50.483Z,29.27
2023-04-28T19:58:18.416Z,31.55
2023-04-28T20:00:47.853Z,29.73
2023-04-28T20:03:16.285Z,34.58
2023-04-28T20:05:44.481Z,34.70
2023-04-28T20:08:12.816Z,32.78
2023-04-28T20:10:40.658Z,33.53
2023-04-28T20:13:08.711Z,32.95
2023-04-28T20:15:36.413Z,33.63
2023-04-28T20:18:04.206Z,30.90
2023-04-28T20:20:31.917Z,33.20
2023-04-28T20:22:59.756Z,33.83
2023-04-28T20:25:28.083Z,33.35
2023-04-28T20:27:56.335Z,36.17
2023-04-28T20:30:24.258Z,33.22
2023-04-28T20:32:52.001Z,35.25
2023-04-28T20:35:20.544Z,35.28
2023-04-28T20:37:48.292Z,37.15
2023-04-28T20:40:15.977Z,43.78
2023-04-28T20:42:43.656Z,35.83
2023-04-28T20:45:11.573Z,34.42
2023-04-28T20:47:39.334Z,33.00
2023-04-28T20:50:10.932Z,37.08
2023-04-28T20:52:39.036Z,37.72
2023-04-28T20:55:09.587Z,35.13
2023-04-28T20:57:37.375Z,33.75
2023-04-28T21:00:06.984Z,41.35
2023-04-28T21:02:34.828Z,36.20
2023-04-28T21:05:02.758Z,37.20
2023-04-28T21:07:30.475Z,39.83
2023-04-28T21:09:58.544Z,40.80
2023-04-28T21:12:26.357Z,38.92
2023-04-28T21:14:54.240Z,43.67
2023-04-28T21:17:21.992Z,41.58
2023-04-28T21:19:49.981Z,45.88
2023-04-28T21:22:17.728Z,38.65
2023-04-28T21:24:45.470Z,39.42
2023-04-28T21:27:13.245Z,42.50
2023-04-28T21:29:41.037Z,36.22
2023-04-28T21:32:09.093Z,43.75
2023-04-28T21:34:36.805Z,41.70
2023-04-28T21:37:04.783Z,37.35
2023-04-28T21:39:32.457Z,42.08
2023-04-28T21:42:00.174Z,40.42
2023-04-28T21:44:27.834Z,40.35
2023-04-28T21:46:55.799Z,42.03
2023-04-28T21:49:23.637Z,39.92
2023-04-28T21:51:51.408Z,40.78
2023-04-28T21:54:20.703Z,42.00
2023-04-28T21:56:48.386Z,43.97
2023-04-28T21:59:17.990Z,44.38
2023-04-28T22:01:46.067Z,43.20
2023-04-28T22:04:14.170Z,41.75
2023-04-28T22:06:42.069Z,45.13
2023-04-28T22:09:09.693Z,51.00
2023-04-28T22:11:37.671Z,53.80
2023-04-28T22:14:05.733Z,48.53
2023-04-28T22:16:33.615Z,52.15
2023-04-28T22:19:02.373Z,45.42
2023-04-28T22:21:30.667Z,51.55
2023-04-28T22:23:58.324Z,59.15
2023-04-28T22:26:29.933Z,56.63
2023-04-28T22:28:57.677Z,61.95
2023-04-28T22:31:25.423Z,60.17
2023-04-28T22:33:53.224Z,59.42
2023-04-28T22:36:21.746Z,50.10
2023-04-28T22:38:49.418Z,50.45
2023-04-28T22:41:17.056Z,49.30
2023-04-28T22:43:44.756Z,47.90
2023-04-28T22:46:12.408Z,44.38
2023-04-28T22:48:40.099Z,45.30
2023-04-28T22:51:09.168Z,41.80
2023-04-28T22:53:36.842Z,40.63
2023-04-28T22:56:04.734Z,36.42
2023-04-28T22:58:32.544Z,39.25
2023-04-28T23:01:04.268Z,36.40
2023-04-28T23:03:32.342Z,38.22
2023-04-28T23:06:00.218Z,40.20
2023-04-28T23:08:27.971Z,38.85
2023-04-28T23:10:59.107Z,37.60
2023-04-28T23:13:26.866Z,36.13
2023-04-28T23:16:00.516Z,41.30
2023-04-28T23:18:32.849Z,40.90
2023-04-28T23:21:00.953Z,36.90
2023-04-28T23:23:28.636Z,44.22
2023-04-28T23:25:56.747Z,39.88
2023-04-28T23:28:24.413Z,40.53
2023-04-28T23:30:52.122Z,42.15
2023-04-28T23:33:20.074Z,54.70
2023-04-28T23:35:47.747Z,43.63
2023-04-28T23:38:15.435Z,51.33
2023-04-28T23:40:43.049Z,43.00
2023-04-28T23:43:10.742Z,51.83
2023-04-28T23:45:38.389Z,42.55
2023-04-28T23:48:06.824Z,48.35
2023-04-28T23:50:34.514Z,45.90
2023-04-28T23:53:02.164Z,51.38
2023-04-28T23:55:30.004Z,53.05
2023-04-28T23:57:57.668Z,46.63
